sensor_id;sensor_type;location;lat;lon;timestamp;P1;durP1;ratioP1;P2;durP2;ratioP2
55254;SDS011;41118;44.634;11.182;2023-06-14T00:01:52;3.17;;;0.50;;
55254;SDS011;41118;44.634;11.182;2023-06-14T00:04:18;4.35;;;0.50;;
55254;SDS011;41118;44.634;11.182;2023-06-14T00:06:45;8.15;;;1.27;;
55254;SDS011;41118;44.634;11.182;2023-06-14T00:09:12;2.50;;;0.70;;
55254;SDS011;41118;44.634;11.182;2023-06-14T00:11:40;3.05;;;0.60;;
55254;SDS011;41118;44.634;11.182;2023-06-14T00:14:07;2.20;;;0.50;;
55254;SDS011;41118;44.634;11.182;2023-06-14T00:16:33;4.07;;;0.40;;
55254;SDS011;41118;44.634;11.182;2023-06-14T00:19:00;2.33;;;0.60;;
55254;SDS011;41118;44.634;11.182;2023-06-14T00:21:28;2.88;;;0.77;;
55254;SDS011;41118;44.634;11.182;2023-06-14T00:23:54;3.47;;;0.63;;
55254;SDS011;41118;44.634;11.182;2023-06-14T00:26:20;3.53;;;0.68;;
55254;SDS011;41118;44.634;11.182;2023-06-14T00:28:46;3.72;;;0.60;;
55254;SDS011;41118;44.634;11.182;2023-06-14T00:31:13;5.05;;;0.40;;
55254;SDS011;41118;44.634;11.182;2023-06-14T00:33:39;4.35;;;0.40;;
55254;SDS011;41118;44.634;11.182;2023-06-14T00:36:05;1.65;;;0.40;;
55254;SDS011;41118;44.634;11.182;2023-06-14T00:38:32;3.65;;;0.30;;
55254;SDS011;41118;44.634;11.182;2023-06-14T00:40:58;2.00;;;0.65;;
55254;SDS011;41118;44.634;11.182;2023-06-14T00:43:24;4.25;;;0.40;;
55254;SDS011;41118;44.634;11.182;2023-06-14T00:45:50;1.88;;;0.77;;
55254;SDS011;41118;44.634;11.182;2023-06-14T00:48:17;2.88;;;0.40;;
55254;SDS011;41118;44.634;11.182;2023-06-14T00:50:44;4.53;;;0.30;;
55254;SDS011;41118;44.634;11.182;2023-06-14T00:53:13;3.65;;;0.60;;
55254;SDS011;41118;44.634;11.182;2023-06-14T00:55:40;1.60;;;0.30;;
55254;SDS011;41118;44.634;11.182;2023-06-14T00:58:06;1.20;;;0.30;;
55254;SDS011;41118;44.634;11.182;2023-06-14T01:00:32;2.40;;;0.28;;
55254;SDS011;41118;44.634;11.182;2023-06-14T01:02:58;4.90;;;0.30;;
55254;SDS011;41118;44.634;11.182;2023-06-14T01:05:26;2.00;;;0.22;;
55254;SDS011;41118;44.634;11.182;2023-06-14T01:10:42;1.45;;;0.30;;
55254;SDS011;41118;44.634;11.182;2023-06-14T01:13:21;2.42;;;0.20;;
55254;SDS011;41118;44.634;11.182;2023-06-14T01:15:49;4.00;;;0.30;;
55254;SDS011;41118;44.634;11.182;2023-06-14T01:18:16;1.13;;;0.30;;
55254;SDS011;41118;44.634;11.182;2023-06-14T01:20:43;1.85;;;0.20;;
55254;SDS011;41118;44.634;11.182;2023-06-14T01:23:20;2.35;;;0.20;;
55254;SDS011;41118;44.634;11.182;2023-06-14T01:25:47;6.13;;;0.20;;
55254;SDS011;41118;44.634;11.182;2023-06-14T01:28:18;2.45;;;0.20;;
55254;SDS011;41118;44.634;11.182;2023-06-14T01:30:44;5.13;;;0.40;;
55254;SDS011;41118;44.634;11.182;2023-06-14T01:33:13;11.93;;;0.52;;
55254;SDS011;41118;44.634;11.182;2023-06-14T01:35:41;3.95;;;0.20;;
55254;SDS011;41118;44.634;11.182;2023-06-14T01:38:08;6.38;;;0.93;;
55254;SDS011;41118;44.634;11.182;2023-06-14T01:40:34;6.80;;;0.20;;
55254;SDS011;41118;44.634;11.182;2023-06-14T01:43:00;7.53;;;0.30;;
55254;SDS011;41118;44.634;11.182;2023-06-14T01:45:28;0.93;;;0.10;;
55254;SDS011;41118;44.634;11.182;2023-06-14T01:47:55;1.33;;;0.20;;
55254;SDS011;41118;44.634;11.182;2023-06-14T01:50:21;1.73;;;0.20;;
55254;SDS011;41118;44.634;11.182;2023-06-14T01:52:47;0.68;;;0.20;;
55254;SDS011;41118;44.634;11.182;2023-06-14T01:55:13;3.70;;;0.20;;
55254;SDS011;41118;44.634;11.182;2023-06-14T01:57:39;1.67;;;0.40;;
55254;SDS011;41118;44.634;11.182;2023-06-14T02:00:05;1.00;;;0.10;;
55254;SDS011;41118;44.634;11.182;2023-06-14T02:02:35;1.55;;;0.20;;
55254;SDS011;41118;44.634;11.182;2023-06-14T02:05:01;4.72;;;0.20;;
55254;SDS011;41118;44.634;11.182;2023-06-14T02:07:27;4.80;;;0.10;;
55254;SDS011;41118;44.634;11.182;2023-06-14T02:09:54;3.88;;;0.20;;
55254;SDS011;41118;44.634;11.182;2023-06-14T02:12:20;0.80;;;0.20;;
55254;SDS011;41118;44.634;11.182;2023-06-14T02:14:46;4.50;;;0.55;;
55254;SDS011;41118;44.634;11.182;2023-06-14T02:17:13;1.70;;;0.20;;
55254;SDS011;41118;44.634;11.182;2023-06-14T02:19:39;15.80;;;1.85;;
55254;SDS011;41118;44.634;11.182;2023-06-14T02:22:06;5.57;;;0.38;;
55254;SDS011;41118;44.634;11.182;2023-06-14T02:24:32;5.07;;;0.45;;
55254;SDS011;41118;44.634;11.182;2023-06-14T02:26:58;1.13;;;0.20;;
55254;SDS011;41118;44.634;11.182;2023-06-14T02:29:25;0.68;;;0.17;;
55254;SDS011;41118;44.634;11.182;2023-06-14T02:31:51;13.57;;;0.40;;
55254;SDS011;41118;44.634;11.182;2023-06-14T02:34:17;1.27;;;0.30;;
55254;SDS011;41118;44.634;11.182;2023-06-14T02:36:44;3.97;;;0.20;;
55254;SDS011;41118;44.634;11.182;2023-06-14T02:39:12;6.55;;;0.40;;
55254;SDS011;41118;44.634;11.182;2023-06-14T02:41:38;2.40;;;0.20;;
55254;SDS011;41118;44.634;11.182;2023-06-14T02:44:05;2.58;;;0.25;;
55254;SDS011;41118;44.634;11.182;2023-06-14T02:46:31;2.63;;;0.20;;
55254;SDS011;41118;44.634;11.182;2023-06-14T02:48:57;3.65;;;0.13;;
55254;SDS011;41118;44.634;11.182;2023-06-14T02:51:23;2.95;;;0.20;;
55254;SDS011;41118;44.634;11.182;2023-06-14T02:53:50;1.48;;;0.17;;
55254;SDS011;41118;44.634;11.182;2023-06-14T02:56:16;0.98;;;0.20;;
55254;SDS011;41118;44.634;11.182;2023-06-14T02:58:42;3.90;;;0.20;;
55254;SDS011;41118;44.634;11.182;2023-06-14T03:01:08;1.77;;;0.10;;
55254;SDS011;41118;44.634;11.182;2023-06-14T03:03:38;1.65;;;0.20;;
55254;SDS011;41118;44.634;11.182;2023-06-14T03:06:04;4.20;;;0.20;;
55254;SDS011;41118;44.634;11.182;2023-06-14T03:08:30;2.15;;;0.20;;
55254;SDS011;41118;44.634;11.182;2023-06-14T03:11:03;5.20;;;0.20;;
55254;SDS011;41118;44.634;11.182;2023-06-14T03:13:33;3.58;;;0.30;;
55254;SDS011;41118;44.634;11.182;2023-06-14T03:15:59;1.27;;;0.10;;
55254;SDS011;41118;44.634;11.182;2023-06-14T03:18:29;6.65;;;0.73;;
55254;SDS011;41118;44.634;11.182;2023-06-14T03:21:00;5.45;;;0.57;;
55254;SDS011;41118;44.634;11.182;2023-06-14T03:23:26;1.08;;;0.20;;
55254;SDS011;41118;44.634;11.182;2023-06-14T03:25:52;0.70;;;0.13;;
55254;SDS011;41118;44.634;11.182;2023-06-14T03:28:18;2.92;;;0.40;;
55254;SDS011;41118;44.634;11.182;2023-06-14T03:30:44;2.67;;;0.10;;
55254;SDS011;41118;44.634;11.182;2023-06-14T03:33:11;5.00;;;0.20;;
55254;SDS011;41118;44.634;11.182;2023-06-14T03:35:37;2.72;;;0.10;;
55254;SDS011;41118;44.634;11.182;2023-06-14T03:38:03;1.60;;;0.20;;
55254;SDS011;41118;44.634;11.182;2023-06-14T03:40:29;0.63;;;0.10;;
55254;SDS011;41118;44.634;11.182;2023-06-14T03:42:56;1.15;;;0.10;;
55254;SDS011;41118;44.634;11.182;2023-06-14T03:45:22;2.58;;;0.10;;
55254;SDS011;41118;44.634;11.182;2023-06-14T03:47:48;1.40;;;0.15;;
55254;SDS011;41118;44.634;11.182;2023-06-14T03:50:14;1.23;;;0.10;;
55254;SDS011;41118;44.634;11.182;2023-06-14T03:52:40;2.25;;;0.47;;
55254;SDS011;41118;44.634;11.182;2023-06-14T03:55:08;1.58;;;0.10;;
55254;SDS011;41118;44.634;11.182;2023-06-14T03:57:36;2.03;;;0.28;;
55254;SDS011;41118;44.634;11.182;2023-06-14T04:00:02;2.78;;;0.40;;
55254;SDS011;41118;44.634;11.182;2023-06-14T04:02:30;0.50;;;0.10;;
55254;SDS011;41118;44.634;11.182;2023-06-14T04:04:56;0.57;;;0.10;;
55254;SDS011;41118;44.634;11.182;2023-06-14T04:07:22;5.30;;;0.20;;
55254;SDS011;41118;44.634;11.182;2023-06-14T04:09:50;7.05;;;0.10;;
55254;SDS011;41118;44.634;11.182;2023-06-14T04:12:16;1.15;;;0.10;;
55254;SDS011;41118;44.634;11.182;2023-06-14T04:14:42;0.50;;;0.10;;
55254;SDS011;41118;44.634;11.182;2023-06-14T04:17:08;4.72;;;0.10;;
55254;SDS011;41118;44.634;11.182;2023-06-14T04:19:34;0.75;;;0.10;;
55254;SDS011;41118;44.634;11.182;2023-06-14T04:22:00;5.75;;;0.10;;
55254;SDS011;41118;44.634;11.182;2023-06-14T04:24:27;2.20;;;0.10;;
55254;SDS011;41118;44.634;11.182;2023-06-14T04:26:57;6.18;;;0.20;;
55254;SDS011;41118;44.634;11.182;2023-06-14T04:29:24;4.75;;;0.13;;
55254;SDS011;41118;44.634;11.182;2023-06-14T04:31:53;0.95;;;0.00;;
55254;SDS011;41118;44.634;11.182;2023-06-14T04:34:19;2.90;;;0.10;;
55254;SDS011;41118;44.634;11.182;2023-06-14T04:36:46;3.17;;;0.10;;
55254;SDS011;41118;44.634;11.182;2023-06-14T04:39:17;7.68;;;0.10;;
55254;SDS011;41118;44.634;11.182;2023-06-14T04:41:44;4.07;;;0.10;;
55254;SDS011;41118;44.634;11.182;2023-06-14T04:44:10;1.35;;;0.10;;
55254;SDS011;41118;44.634;11.182;2023-06-14T04:46:37;2.38;;;0.00;;
55254;SDS011;41118;44.634;11.182;2023-06-14T04:49:11;6.55;;;0.20;;
55254;SDS011;41118;44.634;11.182;2023-06-14T04:51:39;0.63;;;0.08;;
55254;SDS011;41118;44.634;11.182;2023-06-14T04:54:06;3.92;;;0.10;;
55254;SDS011;41118;44.634;11.182;2023-06-14T04:56:35;5.18;;;0.10;;
55254;SDS011;41118;44.634;11.182;2023-06-14T04:59:02;3.20;;;0.10;;
55254;SDS011;41118;44.634;11.182;2023-06-14T05:01:31;1.27;;;0.10;;
55254;SDS011;41118;44.634;11.182;2023-06-14T05:03:58;1.70;;;0.10;;
55254;SDS011;41118;44.634;11.182;2023-06-14T05:06:24;4.05;;;0.10;;
55254;SDS011;41118;44.634;11.182;2023-06-14T05:08:51;1.60;;;0.10;;
55254;SDS011;41118;44.634;11.182;2023-06-14T05:11:17;0.20;;;0.00;;
55254;SDS011;41118;44.634;11.182;2023-06-14T05:13:43;3.22;;;0.55;;
55254;SDS011;41118;44.634;11.182;2023-06-14T05:16:10;2.80;;;0.10;;
55254;SDS011;41118;44.634;11.182;2023-06-14T05:18:36;5.82;;;0.10;;
55254;SDS011;41118;44.634;11.182;2023-06-14T05:21:03;2.63;;;0.68;;
55254;SDS011;41118;44.634;11.182;2023-06-14T05:23:32;0.93;;;0.20;;
55254;SDS011;41118;44.634;11.182;2023-06-14T05:25:58;1.98;;;0.38;;
55254;SDS011;41118;44.634;11.182;2023-06-14T05:28:24;5.88;;;0.10;;
55254;SDS011;41118;44.634;11.182;2023-06-14T05:30:51;7.45;;;0.70;;
55254;SDS011;41118;44.634;11.182;2023-06-14T05:33:17;2.10;;;0.20;;
55254;SDS011;41118;44.634;11.182;2023-06-14T05:35:43;1.02;;;0.30;;
55254;SDS011;41118;44.634;11.182;2023-06-14T05:38:09;0.70;;;0.10;;
55254;SDS011;41118;44.634;11.182;2023-06-14T05:40:35;0.70;;;0.10;;
55254;SDS011;41118;44.634;11.182;2023-06-14T05:43:01;1.13;;;0.10;;
55254;SDS011;41118;44.634;11.182;2023-06-14T05:45:27;11.35;;;0.20;;
55254;SDS011;41118;44.634;11.182;2023-06-14T05:47:54;2.22;;;0.63;;
55254;SDS011;41118;44.634;11.182;2023-06-14T05:50:20;1.23;;;0.40;;
55254;SDS011;41118;44.634;11.182;2023-06-14T05:52:46;2.38;;;0.20;;
55254;SDS011;41118;44.634;11.182;2023-06-14T05:55:12;1.35;;;0.20;;
55254;SDS011;41118;44.634;11.182;2023-06-14T05:57:38;2.15;;;0.30;;
55254;SDS011;41118;44.634;11.182;2023-06-14T06:00:06;2.97;;;0.20;;
55254;SDS011;41118;44.634;11.182;2023-06-14T06:02:42;5.90;;;0.30;;
55254;SDS011;41118;44.634;11.182;2023-06-14T06:05:08;1.73;;;0.30;;
55254;SDS011;41118;44.634;11.182;2023-06-14T06:07:35;3.67;;;0.30;;
55254;SDS011;41118;44.634;11.182;2023-06-14T06:10:01;2.67;;;0.45;;
55254;SDS011;41118;44.634;11.182;2023-06-14T06:12:27;5.82;;;0.30;;
55254;SDS011;41118;44.634;11.182;2023-06-14T06:14:53;2.40;;;0.40;;
55254;SDS011;41118;44.634;11.182;2023-06-14T06:17:20;6.03;;;0.43;;
55254;SDS011;41118;44.634;11.182;2023-06-14T06:19:46;2.22;;;0.45;;
55254;SDS011;41118;44.634;11.182;2023-06-14T06:22:12;7.47;;;0.90;;
55254;SDS011;41118;44.634;11.182;2023-06-14T06:24:38;6.50;;;0.40;;
55254;SDS011;41118;44.634;11.182;2023-06-14T06:27:04;9.50;;;0.80;;
55254;SDS011;41118;44.634;11.182;2023-06-14T06:29:33;2.65;;;0.30;;
55254;SDS011;41118;44.634;11.182;2023-06-14T06:31:59;1.30;;;0.30;;
55254;SDS011;41118;44.634;11.182;2023-06-14T06:34:25;2.33;;;0.40;;
55254;SDS011;41118;44.634;11.182;2023-06-14T06:36:51;7.72;;;0.70;;
55254;SDS011;41118;44.634;11.182;2023-06-14T06:39:18;3.42;;;0.40;;
55254;SDS011;41118;44.634;11.182;2023-06-14T06:41:44;5.18;;;0.40;;
55254;SDS011;41118;44.634;11.182;2023-06-14T06:44:11;1.73;;;0.38;;
55254;SDS011;41118;44.634;11.182;2023-06-14T06:46:37;5.43;;;0.77;;
55254;SDS011;41118;44.634;11.182;2023-06-14T06:49:05;1.73;;;0.38;;
55254;SDS011;41118;44.634;11.182;2023-06-14T06:51:31;2.83;;;0.50;;
55254;SDS011;41118;44.634;11.182;2023-06-14T06:53:57;2.03;;;0.30;;
55254;SDS011;41118;44.634;11.182;2023-06-14T06:56:24;6.25;;;0.70;;
55254;SDS011;41118;44.634;11.182;2023-06-14T06:58:50;4.43;;;0.85;;
55254;SDS011;41118;44.634;11.182;2023-06-14T07:01:17;3.30;;;0.73;;
55254;SDS011;41118;44.634;11.182;2023-06-14T07:03:45;6.30;;;1.02;;
55254;SDS011;41118;44.634;11.182;2023-06-14T07:06:11;2.83;;;0.77;;
55254;SDS011;41118;44.634;11.182;2023-06-14T07:08:37;3.88;;;1.00;;
55254;SDS011;41118;44.634;11.182;2023-06-14T07:11:04;6.07;;;0.50;;
55254;SDS011;41118;44.634;11.182;2023-06-14T07:13:30;4.15;;;0.93;;
55254;SDS011;41118;44.634;11.182;2023-06-14T07:15:59;5.43;;;0.90;;
55254;SDS011;41118;44.634;11.182;2023-06-14T07:18:25;4.35;;;1.10;;
55254;SDS011;41118;44.634;11.182;2023-06-14T07:20:52;4.72;;;0.40;;
55254;SDS011;41118;44.634;11.182;2023-06-14T07:23:18;4.05;;;0.70;;
55254;SDS011;41118;44.634;11.182;2023-06-14T07:25:45;2.33;;;0.68;;
55254;SDS011;41118;44.634;11.182;2023-06-14T07:28:11;2.42;;;0.52;;
55254;SDS011;41118;44.634;11.182;2023-06-14T07:30:37;2.78;;;0.60;;
55254;SDS011;41118;44.634;11.182;2023-06-14T07:33:03;5.20;;;0.60;;
55254;SDS011;41118;44.634;11.182;2023-06-14T07:35:30;2.42;;;0.52;;
55254;SDS011;41118;44.634;11.182;2023-06-14T07:37:56;5.15;;;0.50;;
55254;SDS011;41118;44.634;11.182;2023-06-14T07:40:23;2.85;;;0.65;;
55254;SDS011;41118;44.634;11.182;2023-06-14T07:42:49;4.68;;;0.80;;
55254;SDS011;41118;44.634;11.182;2023-06-14T07:45:15;4.53;;;0.80;;
55254;SDS011;41118;44.634;11.182;2023-06-14T07:47:42;2.40;;;0.80;;
55254;SDS011;41118;44.634;11.182;2023-06-14T07:50:08;2.28;;;0.40;;
55254;SDS011;41118;44.634;11.182;2023-06-14T07:52:34;2.95;;;0.73;;
55254;SDS011;41118;44.634;11.182;2023-06-14T07:55:00;5.97;;;0.88;;
55254;SDS011;41118;44.634;11.182;2023-06-14T07:57:26;5.05;;;0.95;;
55254;SDS011;41118;44.634;11.182;2023-06-14T07:59:52;2.60;;;0.47;;
55254;SDS011;41118;44.634;11.182;2023-06-14T08:02:19;2.20;;;0.50;;
55254;SDS011;41118;44.634;11.182;2023-06-14T08:04:45;5.60;;;0.80;;
55254;SDS011;41118;44.634;11.182;2023-06-14T08:07:13;2.78;;;0.80;;
55254;SDS011;41118;44.634;11.182;2023-06-14T08:09:39;4.45;;;0.93;;
55254;SDS011;41118;44.634;11.182;2023-06-14T08:12:06;6.95;;;0.65;;
55254;SDS011;41118;44.634;11.182;2023-06-14T08:14:35;4.03;;;0.50;;
55254;SDS011;41118;44.634;11.182;2023-06-14T08:17:01;4.22;;;0.98;;
55254;SDS011;41118;44.634;11.182;2023-06-14T08:19:27;4.22;;;0.50;;
55254;SDS011;41118;44.634;11.182;2023-06-14T08:21:53;3.53;;;1.63;;
55254;SDS011;41118;44.634;11.182;2023-06-14T08:24:23;2.60;;;0.60;;
55254;SDS011;41118;44.634;11.182;2023-06-14T08:26:50;6.32;;;1.35;;
55254;SDS011;41118;44.634;11.182;2023-06-14T08:29:16;3.25;;;0.60;;
55254;SDS011;41118;44.634;11.182;2023-06-14T08:31:43;2.60;;;0.47;;
55254;SDS011;41118;44.634;11.182;2023-06-14T08:34:10;4.72;;;0.60;;
55254;SDS011;41118;44.634;11.182;2023-06-14T08:36:36;2.88;;;1.00;;
55254;SDS011;41118;44.634;11.182;2023-06-14T08:39:02;4.25;;;0.60;;
55254;SDS011;41118;44.634;11.182;2023-06-14T08:41:28;7.07;;;1.02;;
55254;SDS011;41118;44.634;11.182;2023-06-14T08:43:55;6.85;;;0.90;;
55254;SDS011;41118;44.634;11.182;2023-06-14T08:46:21;6.85;;;1.00;;
55254;SDS011;41118;44.634;11.182;2023-06-14T08:48:50;3.80;;;0.50;;
55254;SDS011;41118;44.634;11.182;2023-06-14T08:51:18;6.20;;;1.17;;
55254;SDS011;41118;44.634;11.182;2023-06-14T08:53:44;6.80;;;1.15;;
55254;SDS011;41118;44.634;11.182;2023-06-14T08:56:10;5.03;;;1.25;;
55254;SDS011;41118;44.634;11.182;2023-06-14T08:58:44;3.47;;;0.98;;
55254;SDS011;41118;44.634;11.182;2023-06-14T09:01:11;6.35;;;0.93;;
55254;SDS011;41118;44.634;11.182;2023-06-14T09:03:39;3.97;;;0.77;;
55254;SDS011;41118;44.634;11.182;2023-06-14T09:06:06;2.95;;;0.85;;
55254;SDS011;41118;44.634;11.182;2023-06-14T09:08:38;4.80;;;0.77;;
55254;SDS011;41118;44.634;11.182;2023-06-14T09:11:05;4.95;;;1.27;;
55254;SDS011;41118;44.634;11.182;2023-06-14T09:13:31;4.32;;;1.13;;
55254;SDS011;41118;44.634;11.182;2023-06-14T09:15:57;7.32;;;2.33;;
55254;SDS011;41118;44.634;11.182;2023-06-14T09:18:33;5.50;;;2.03;;
55254;SDS011;41118;44.634;11.182;2023-06-14T09:20:59;5.43;;;1.73;;
55254;SDS011;41118;44.634;11.182;2023-06-14T09:23:25;5.63;;;1.90;;
55254;SDS011;41118;44.634;11.182;2023-06-14T09:25:51;5.32;;;1.48;;
55254;SDS011;41118;44.634;11.182;2023-06-14T09:28:17;6.72;;;1.65;;
55254;SDS011;41118;44.634;11.182;2023-06-14T09:30:45;7.13;;;1.55;;
55254;SDS011;41118;44.634;11.182;2023-06-14T09:33:16;6.72;;;1.77;;
55254;SDS011;41118;44.634;11.182;2023-06-14T09:35:44;5.53;;;1.55;;
55254;SDS011;41118;44.634;11.182;2023-06-14T09:38:10;4.47;;;1.08;;
55254;SDS011;41118;44.634;11.182;2023-06-14T09:40:36;8.88;;;1.67;;
55254;SDS011;41118;44.634;11.182;2023-06-14T09:43:05;7.78;;;1.92;;
55254;SDS011;41118;44.634;11.182;2023-06-14T09:45:34;4.05;;;1.42;;
55254;SDS011;41118;44.634;11.182;2023-06-14T09:48:00;3.92;;;1.15;;
55254;SDS011;41118;44.634;11.182;2023-06-14T09:50:26;4.35;;;1.10;;
55254;SDS011;41118;44.634;11.182;2023-06-14T09:52:52;4.43;;;1.65;;
55254;SDS011;41118;44.634;11.182;2023-06-14T09:55:23;5.28;;;0.60;;
55254;SDS011;41118;44.634;11.182;2023-06-14T09:57:50;1.95;;;0.63;;
55254;SDS011;41118;44.634;11.182;2023-06-14T10:00:17;3.15;;;0.40;;
55254;SDS011;41118;44.634;11.182;2023-06-14T10:02:43;2.83;;;0.40;;
55254;SDS011;41118;44.634;11.182;2023-06-14T10:05:15;1.10;;;0.30;;
55254;SDS011;41118;44.634;11.182;2023-06-14T10:10:15;0.90;;;0.30;;
55254;SDS011;41118;44.634;11.182;2023-06-14T10:12:41;1.30;;;0.32;;
55254;SDS011;41118;44.634;11.182;2023-06-14T10:15:09;1.33;;;0.30;;
55254;SDS011;41118;44.634;11.182;2023-06-14T10:20:15;0.93;;;0.30;;
55254;SDS011;41118;44.634;11.182;2023-06-14T10:22:45;1.40;;;0.50;;
55254;SDS011;41118;44.634;11.182;2023-06-14T10:25:13;2.25;;;0.30;;
55254;SDS011;41118;44.634;11.182;2023-06-14T10:27:52;1.38;;;0.40;;
55254;SDS011;41118;44.634;11.182;2023-06-14T10:30:18;1.73;;;0.30;;
55254;SDS011;41118;44.634;11.182;2023-06-14T10:33:03;1.50;;;0.40;;
55254;SDS011;41118;44.634;11.182;2023-06-14T10:35:30;1.48;;;0.40;;
55254;SDS011;41118;44.634;11.182;2023-06-14T10:38:05;1.27;;;0.35;;
55254;SDS011;41118;44.634;11.182;2023-06-14T10:40:31;0.98;;;0.30;;
55254;SDS011;41118;44.634;11.182;2023-06-14T10:42:59;1.88;;;0.40;;
55254;SDS011;41118;44.634;11.182;2023-06-14T10:45:25;1.42;;;0.30;;
55254;SDS011;41118;44.634;11.182;2023-06-14T10:47:51;3.50;;;0.30;;
55254;SDS011;41118;44.634;11.182;2023-06-14T10:50:22;1.58;;;0.22;;
55254;SDS011;41118;44.634;11.182;2023-06-14T10:52:53;1.70;;;0.20;;
55254;SDS011;41118;44.634;11.182;2023-06-14T10:55:19;0.80;;;0.20;;
55254;SDS011;41118;44.634;11.182;2023-06-14T10:57:51;1.52;;;0.20;;
55254;SDS011;41118;44.634;11.182;2023-06-14T11:00:25;1.08;;;0.13;;
55254;SDS011;41118;44.634;11.182;2023-06-14T11:10:54;1.27;;;0.20;;
55254;SDS011;41118;44.634;11.182;2023-06-14T11:13:25;0.93;;;0.20;;
55254;SDS011;41118;44.634;11.182;2023-06-14T11:15:51;1.38;;;0.20;;
55254;SDS011;41118;44.634;11.182;2023-06-14T11:18:22;1.05;;;0.20;;
55254;SDS011;41118;44.634;11.182;2023-06-14T11:20:54;1.55;;;0.20;;
55254;SDS011;41118;44.634;11.182;2023-06-14T11:23:21;2.85;;;0.20;;
55254;SDS011;41118;44.634;11.182;2023-06-14T11:25:51;0.77;;;0.28;;
55254;SDS011;41118;44.634;11.182;2023-06-14T11:28:17;0.68;;;0.15;;
55254;SDS011;41118;44.634;11.182;2023-06-14T11:30:45;1.65;;;0.50;;
55254;SDS011;41118;44.634;11.182;2023-06-14T11:33:11;1.10;;;0.28;;
55254;SDS011;41118;44.634;11.182;2023-06-14T11:35:43;0.60;;;0.20;;
55254;SDS011;41118;44.634;11.182;2023-06-14T11:38:10;0.90;;;0.22;;
55254;SDS011;41118;44.634;11.182;2023-06-14T11:40:37;0.88;;;0.40;;
55254;SDS011;41118;44.634;11.182;2023-06-14T11:43:04;0.88;;;0.20;;
55254;SDS011;41118;44.634;11.182;2023-06-14T11:45:30;2.05;;;0.20;;
55254;SDS011;41118;44.634;11.182;2023-06-14T11:47:57;1.33;;;0.20;;
55254;SDS011;41118;44.634;11.182;2023-06-14T11:50:24;1.15;;;0.38;;
55254;SDS011;41118;44.634;11.182;2023-06-14T11:52:57;0.98;;;0.20;;
55254;SDS011;41118;44.634;11.182;2023-06-14T11:55:25;2.00;;;0.10;;
55254;SDS011;41118;44.634;11.182;2023-06-14T11:57:52;0.88;;;0.10;;
55254;SDS011;41118;44.634;11.182;2023-06-14T12:00:22;0.63;;;0.20;;
55254;SDS011;41118;44.634;11.182;2023-06-14T12:02:53;0.75;;;0.20;;
55254;SDS011;41118;44.634;11.182;2023-06-14T12:05:23;0.73;;;0.20;;
55254;SDS011;41118;44.634;11.182;2023-06-14T12:07:57;0.40;;;0.10;;
55254;SDS011;41118;44.634;11.182;2023-06-14T12:10:24;0.70;;;0.20;;
55254;SDS011;41118;44.634;11.182;2023-06-14T12:12:50;0.65;;;0.15;;
55254;SDS011;41118;44.634;11.182;2023-06-14T12:15:16;0.80;;;0.20;;
55254;SDS011;41118;44.634;11.182;2023-06-14T12:17:42;2.22;;;0.20;;
55254;SDS011;41118;44.634;11.182;2023-06-14T12:20:09;1.20;;;0.20;;
55254;SDS011;41118;44.634;11.182;2023-06-14T12:22:39;0.52;;;0.10;;
55254;SDS011;41118;44.634;11.182;2023-06-14T12:25:06;1.50;;;0.20;;
55254;SDS011;41118;44.634;11.182;2023-06-14T12:27:34;0.52;;;0.15;;
55254;SDS011;41118;44.634;11.182;2023-06-14T12:30:02;3.08;;;0.20;;
55254;SDS011;41118;44.634;11.182;2023-06-14T12:32:28;2.03;;;0.17;;
55254;SDS011;41118;44.634;11.182;2023-06-14T12:34:54;0.60;;;0.20;;
55254;SDS011;41118;44.634;11.182;2023-06-14T12:37:21;0.93;;;0.10;;
55254;SDS011;41118;44.634;11.182;2023-06-14T12:39:47;0.70;;;0.20;;
55254;SDS011;41118;44.634;11.182;2023-06-14T12:42:15;0.55;;;0.10;;
55254;SDS011;41118;44.634;11.182;2023-06-14T12:44:41;0.57;;;0.10;;
55254;SDS011;41118;44.634;11.182;2023-06-14T12:47:07;0.85;;;0.20;;
55254;SDS011;41118;44.634;11.182;2023-06-14T12:49:33;0.50;;;0.10;;
55254;SDS011;41118;44.634;11.182;2023-06-14T12:51:59;1.13;;;0.20;;
55254;SDS011;41118;44.634;11.182;2023-06-14T12:54:26;0.70;;;0.10;;
55254;SDS011;41118;44.634;11.182;2023-06-14T12:56:52;0.60;;;0.20;;
55254;SDS011;41118;44.634;11.182;2023-06-14T12:59:20;0.60;;;0.10;;
55254;SDS011;41118;44.634;11.182;2023-06-14T13:01:46;1.40;;;0.20;;
55254;SDS011;41118;44.634;11.182;2023-06-14T13:04:15;1.20;;;0.20;;
55254;SDS011;41118;44.634;11.182;2023-06-14T13:06:41;5.97;;;0.20;;
55254;SDS011;41118;44.634;11.182;2023-06-14T13:09:07;1.25;;;0.20;;
55254;SDS011;41118;44.634;11.182;2023-06-14T13:11:33;2.45;;;0.20;;
55254;SDS011;41118;44.634;11.182;2023-06-14T13:13:59;1.45;;;0.20;;
55254;SDS011;41118;44.634;11.182;2023-06-14T13:16:25;1.65;;;0.20;;
55254;SDS011;41118;44.634;11.182;2023-06-14T13:18:52;1.20;;;0.20;;
55254;SDS011;41118;44.634;11.182;2023-06-14T13:21:18;2.70;;;0.20;;
55254;SDS011;41118;44.634;11.182;2023-06-14T13:23:44;0.93;;;0.20;;
55254;SDS011;41118;44.634;11.182;2023-06-14T13:26:10;2.33;;;0.20;;
55254;SDS011;41118;44.634;11.182;2023-06-14T13:28:37;1.38;;;0.30;;
55254;SDS011;41118;44.634;11.182;2023-06-14T13:31:03;1.52;;;0.25;;
55254;SDS011;41118;44.634;11.182;2023-06-14T13:33:29;1.35;;;0.30;;
55254;SDS011;41118;44.634;11.182;2023-06-14T13:35:55;1.00;;;0.20;;
55254;SDS011;41118;44.634;11.182;2023-06-14T13:38:21;0.93;;;0.20;;
55254;SDS011;41118;44.634;11.182;2023-06-14T13:40:47;0.70;;;0.20;;
55254;SDS011;41118;44.634;11.182;2023-06-14T13:43:14;1.67;;;0.30;;
55254;SDS011;41118;44.634;11.182;2023-06-14T13:45:40;2.65;;;0.20;;
55254;SDS011;41118;44.634;11.182;2023-06-14T13:48:06;0.80;;;0.20;;
55254;SDS011;41118;44.634;11.182;2023-06-14T13:50:32;5.75;;;0.20;;
55254;SDS011;41118;44.634;11.182;2023-06-14T13:52:58;1.63;;;0.20;;
55254;SDS011;41118;44.634;11.182;2023-06-14T13:55:24;1.02;;;0.22;;
55254;SDS011;41118;44.634;11.182;2023-06-14T13:57:50;1.27;;;0.30;;
55254;SDS011;41118;44.634;11.182;2023-06-14T14:00:16;0.63;;;0.20;;
55254;SDS011;41118;44.634;11.182;2023-06-14T14:02:43;0.80;;;0.20;;
55254;SDS011;41118;44.634;11.182;2023-06-14T14:05:10;1.98;;;0.30;;
55254;SDS011;41118;44.634;11.182;2023-06-14T14:07:36;1.08;;;0.20;;
55254;SDS011;41118;44.634;11.182;2023-06-14T14:10:02;1.45;;;0.30;;
55254;SDS011;41118;44.634;11.182;2023-06-14T14:12:28;1.13;;;0.22;;
55254;SDS011;41118;44.634;11.182;2023-06-14T14:14:54;1.08;;;0.20;;
55254;SDS011;41118;44.634;11.182;2023-06-14T14:17:21;0.52;;;0.20;;
55254;SDS011;41118;44.634;11.182;2023-06-14T14:19:48;1.80;;;0.20;;
55254;SDS011;41118;44.634;11.182;2023-06-14T14:22:14;1.25;;;0.20;;
55254;SDS011;41118;44.634;11.182;2023-06-14T14:24:40;1.10;;;0.30;;
55254;SDS011;41118;44.634;11.182;2023-06-14T14:27:06;6.28;;;0.30;;
55254;SDS011;41118;44.634;11.182;2023-06-14T14:29:32;1.00;;;0.30;;
55254;SDS011;41118;44.634;11.182;2023-06-14T14:31:59;3.67;;;0.22;;
55254;SDS011;41118;44.634;11.182;2023-06-14T14:34:26;1.55;;;0.30;;
55254;SDS011;41118;44.634;11.182;2023-06-14T14:36:52;1.52;;;0.20;;
55254;SDS011;41118;44.634;11.182;2023-06-14T14:39:18;0.75;;;0.20;;
55254;SDS011;41118;44.634;11.182;2023-06-14T14:41:44;0.90;;;0.25;;
55254;SDS011;41118;44.634;11.182;2023-06-14T14:44:11;2.00;;;0.30;;
55254;SDS011;41118;44.634;11.182;2023-06-14T14:46:37;1.25;;;0.25;;
55254;SDS011;41118;44.634;11.182;2023-06-14T14:49:03;1.58;;;0.20;;